Time;durP1;ratioP1;P1;durP2;ratioP2;P2;SDS_P1;SDS_P2;PMS_P1;PMS_P2;Temp;Humidity;BMP_temperature;BMP_pressure;BME280_temperature;BME280_humidity;BME280_pressure;Samples;Min_cycle;Max_cycle;Signal;HPM_P1;HPM_P2
2023/04/11 00:01:08;;;;;;;5.00;3.67;;;;;;;;;;5032952;28;20049;-74
2023/04/11 00:03:39;;;;;;;2.90;1.33;;;;;;;;;;5027755;28;20045;-74
2023/04/11 00:06:10;;;;;;;2.72;1.40;;;;;;;;;;5026546;28;20048;-75
2023/04/11 00:08:43;;;;;;;2.55;1.10;;;;;;;;;;5027253;28;20045;-75
2023/04/11 00:11:13;;;;;;;3.20;1.40;;;;;;;;;;5027097;28;20535;-74
2023/04/11 00:13:46;;;;;;;2.03;1.17;;;;;;;;;;5027627;28;20053;-75
2023/04/11 00:16:18;;;;;;;3.17;1.50;;;;;;;;;;5027232;28;20052;-75
2023/04/11 00:18:48;;;;;;;5.03;1.40;;;;;;;;;;5027498;28;20049;-74
2023/04/11 00:21:18;;;;;;;2.33;1.02;;;;;;;;;;5027053;28;20534;-74
2023/04/11 00:23:48;;;;;;;9.30;1.23;;;;;;;;;;5025770;28;20053;-74
2023/04/11 00:26:18;;;;;;;3.88;1.10;;;;;;;;;;5027750;28;20056;-74
2023/04/11 00:28:49;;;;;;;3.05;1.20;;;;;;;;;;5027773;28;20052;-74
2023/04/11 00:31:19;;;;;;;3.03;1.13;;;;;;;;;;5025963;28;20103;-78
2023/04/11 00:33:49;;;;;;;3.90;0.93;;;;;;;;;;5027615;28;20046;-74
2023/04/11 00:36:20;;;;;;;4.22;1.00;;;;;;;;;;5027186;28;20060;-74
2023/04/11 00:38:53;;;;;;;4.05;1.10;;;;;;;;;;5026840;28;20512;-73
2023/04/11 00:41:24;;;;;;;4.25;1.20;;;;;;;;;;5025634;28;20057;-73
2023/04/11 00:43:56;;;;;;;6.78;1.20;;;;;;;;;;5026928;28;20156;-72
2023/04/11 00:46:27;;;;;;;1.48;1.00;;;;;;;;;;5025753;28;20064;-74
2023/04/11 00:49:00;;;;;;;2.97;1.40;;;;;;;;;;5026409;28;20054;-75
2023/04/11 00:51:30;;;;;;;5.18;1.20;;;;;;;;;;5026638;28;20042;-74
2023/04/11 00:54:01;;;;;;;2.30;1.20;;;;;;;;;;5026349;28;20053;-73
2023/04/11 00:56:31;;;;;;;2.90;1.10;;;;;;;;;;5027024;28;20049;-75
2023/04/11 00:59:02;;;;;;;3.53;1.05;;;;;;;;;;5023668;28;20066;-73
2023/04/11 01:01:35;;;;;;;3.00;1.20;;;;;;;;;;5026190;28;20045;-74
2023/04/11 01:04:06;;;;;;;3.38;1.38;;;;;;;;;;5026605;28;20547;-74
2023/04/11 01:06:37;;;;;;;1.73;1.15;;;;;;;;;;5026037;28;20057;-76
2023/04/11 01:09:07;;;;;;;6.93;1.27;;;;;;;;;;5024376;28;20053;-75
2023/04/11 01:11:38;;;;;;;5.25;1.45;;;;;;;;;;5026726;28;20053;-77
2023/04/11 01:14:08;;;;;;;1.40;0.95;;;;;;;;;;5025627;28;20045;-77
2023/04/11 01:16:38;;;;;;;5.97;1.50;;;;;;;;;;5025900;28;20049;-75
2023/04/11 01:19:10;;;;;;;4.93;1.10;;;;;;;;;;5025567;28;20393;-74
2023/04/11 01:21:42;;;;;;;4.82;1.08;;;;;;;;;;5026368;28;20045;-78
2023/04/11 01:24:11;;;;;;;3.72;1.20;;;;;;;;;;5026732;28;20468;-75
2023/04/11 01:26:43;;;;;;;1.55;1.25;;;;;;;;;;5026723;28;20377;-73
2023/04/11 01:29:16;;;;;;;5.18;1.42;;;;;;;;;;5026520;28;20057;-76
2023/04/11 01:31:51;;;;;;;2.63;1.20;;;;;;;;;;5026783;28;20407;-78
2023/04/11 01:34:27;;;;;;;4.80;1.42;;;;;;;;;;5026177;28;20535;-76
2023/04/11 01:36:57;;;;;;;3.13;1.20;;;;;;;;;;5026710;28;20061;-78
2023/04/11 01:39:29;;;;;;;1.10;0.95;;;;;;;;;;5026898;28;20049;-75
2023/04/11 01:42:03;;;;;;;2.20;1.13;;;;;;;;;;5025876;28;20049;-73
2023/04/11 01:44:35;;;;;;;2.85;1.02;;;;;;;;;;5026598;28;20768;-73
2023/04/11 01:47:05;;;;;;;1.52;1.23;;;;;;;;;;5026799;28;20053;-75
2023/04/11 01:49:35;;;;;;;1.65;1.23;;;;;;;;;;5026918;28;20049;-78
2023/04/11 01:52:05;;;;;;;5.80;1.20;;;;;;;;;;5026315;28;20056;-77
2023/04/11 01:54:37;;;;;;;3.00;1.35;;;;;;;;;;5025412;28;20064;-77
2023/04/11 01:57:07;;;;;;;2.90;1.42;;;;;;;;;;5024498;28;20072;-76
2023/04/11 01:59:37;;;;;;;9.10;2.03;;;;;;;;;;5025111;28;20062;-74
2023/04/11 02:02:07;;;;;;;5.68;1.00;;;;;;;;;;5009549;28;20511;-72
2023/04/11 02:04:38;;;;;;;3.38;1.30;;;;;;;;;;5027347;28;20045;-79
2023/04/11 02:07:08;;;;;;;3.33;1.30;;;;;;;;;;5030354;28;20056;-75
2023/04/11 02:09:40;;;;;;;3.15;1.10;;;;;;;;;;5028827;28;20068;-74
2023/04/11 02:12:11;;;;;;;6.38;1.60;;;;;;;;;;5028561;28;20045;-76
2023/04/11 02:14:43;;;;;;;7.75;1.80;;;;;;;;;;5030106;28;20056;-74
2023/04/11 02:17:17;;;;;;;1.50;1.13;;;;;;;;;;5028423;28;20057;-75
2023/04/11 02:19:48;;;;;;;3.67;1.60;;;;;;;;;;5030546;28;20041;-80
2023/04/11 02:22:19;;;;;;;7.00;1.60;;;;;;;;;;5029629;28;20073;-76
2023/04/11 02:24:50;;;;;;;1.30;1.13;;;;;;;;;;5029027;28;20050;-73
2023/04/11 02:27:22;;;;;;;3.70;1.42;;;;;;;;;;5028459;28;20064;-75
2023/04/11 02:29:55;;;;;;;2.22;1.48;;;;;;;;;;5028401;28;20065;-77
2023/04/11 02:32:26;;;;;;;2.00;1.20;;;;;;;;;;5029524;28;20045;-77
2023/04/11 02:34:56;;;;;;;4.88;1.15;;;;;;;;;;5029238;28;20500;-75
2023/04/11 02:37:28;;;;;;;3.05;1.17;;;;;;;;;;5029122;28;20049;-77
2023/04/11 02:40:01;;;;;;;8.15;1.42;;;;;;;;;;5029650;28;20072;-77
2023/04/11 02:42:31;;;;;;;4.78;1.30;;;;;;;;;;5028225;28;20527;-75
2023/04/11 02:45:01;;;;;;;3.95;1.50;;;;;;;;;;5029223;28;20050;-75
2023/04/11 02:47:32;;;;;;;3.72;1.42;;;;;;;;;;5029455;28;20088;-75
2023/04/11 02:50:08;;;;;;;2.05;1.42;;;;;;;;;;5027958;28;20076;-78
2023/04/11 02:52:46;;;;;;;3.53;1.42;;;;;;;;;;5028612;28;20056;-75
2023/04/11 02:55:29;;;;;;;2.03;1.40;;;;;;;;;;5027864;28;20053;-77
2023/04/11 02:58:06;;;;;;;2.00;1.23;;;;;;;;;;5027913;28;20066;-77
2023/04/11 03:00:37;;;;;;;2.78;1.30;;;;;;;;;;5027710;28;20053;-76
2023/04/11 03:03:10;;;;;;;7.47;1.58;;;;;;;;;;5027766;28;20060;-76
2023/04/11 03:05:46;;;;;;;4.78;1.58;;;;;;;;;;5027649;28;20053;-74
2023/04/11 03:08:21;;;;;;;3.08;1.33;;;;;;;;;;5027679;28;20060;-76
2023/04/11 03:10:54;;;;;;;4.10;1.65;;;;;;;;;;5028072;28;20060;-74
2023/04/11 03:13:25;;;;;;;6.68;1.40;;;;;;;;;;5027606;28;20061;-76
2023/04/11 03:15:57;;;;;;;2.97;1.20;;;;;;;;;;5027737;28;20513;-76
2023/04/11 03:18:29;;;;;;;2.97;1.23;;;;;;;;;;5026887;28;20053;-75
2023/04/11 03:21:09;;;;;;;3.75;1.60;;;;;;;;;;5027862;28;20057;-77
2023/04/11 03:23:45;;;;;;;3.92;1.45;;;;;;;;;;5027405;28;20401;-76
2023/04/11 03:26:17;;;;;;;6.53;1.65;;;;;;;;;;5027572;28;20057;-74
2023/04/11 03:28:48;;;;;;;2.38;1.60;;;;;;;;;;5027537;28;20072;-77
2023/04/11 03:31:20;;;;;;;3.38;1.60;;;;;;;;;;5027481;28;20064;-76
2023/04/11 03:33:54;;;;;;;3.40;1.30;;;;;;;;;;5027280;28;20053;-72
2023/04/11 03:36:26;;;;;;;4.20;1.70;;;;;;;;;;5027755;28;20411;-76
2023/04/11 03:39:02;;;;;;;;;;;;;;;;;;5028577;28;20052;-76
2023/04/11 03:41:35;;;;;;;5.25;1.50;;;;;;;;;;5027275;28;19933;-76
2023/04/11 03:44:09;;;;;;;5.88;1.70;;;;;;;;;;5027463;28;20068;-76
2023/04/11 03:46:40;;;;;;;3.83;1.63;;;;;;;;;;5027213;28;20050;-74
2023/04/11 03:49:10;;;;;;;2.72;1.50;;;;;;;;;;5027247;28;20531;-74
2023/04/11 03:51:41;;;;;;;4.13;1.63;;;;;;;;;;5028266;28;20041;-75
2023/04/11 03:54:11;;;;;;;4.03;1.65;;;;;;;;;;5026905;28;20053;-74
2023/04/11 03:56:43;;;;;;;4.88;1.73;;;;;;;;;;5027777;28;20064;-75
2023/04/11 03:59:20;;;;;;;3.03;1.73;;;;;;;;;;5027051;28;20057;-74
2023/04/11 04:02:04;;;;;;;4.03;1.38;;;;;;;;;;5027252;28;20069;-75
2023/04/11 04:04:39;;;;;;;2.25;1.55;;;;;;;;;;5027606;28;20053;-74
2023/04/11 04:07:22;;;;;;;2.33;1.50;;;;;;;;;;5026943;28;20060;-76
2023/04/11 04:09:58;;;;;;;5.35;1.50;;;;;;;;;;5026510;28;20065;-77
2023/04/11 04:12:29;;;;;;;6.90;1.85;;;;;;;;;;5028078;28;20057;-74
2023/04/11 04:15:13;;;;;;;7.05;1.70;;;;;;;;;;5026914;28;20053;-73
2023/04/11 04:17:47;;;;;;;2.33;1.67;;;;;;;;;;5028053;28;20488;-77
2023/04/11 04:20:25;;;;;;;7.20;1.92;;;;;;;;;;5027575;28;20057;-74
2023/04/11 04:22:59;;;;;;;6.15;1.83;;;;;;;;;;5026593;28;20060;-73
2023/04/11 04:25:41;;;;;;;5.93;1.58;;;;;;;;;;5026990;28;20060;-74
2023/04/11 04:28:13;;;;;;;4.03;1.50;;;;;;;;;;5026372;28;20448;-77
2023/04/11 04:30:48;;;;;;;9.27;1.60;;;;;;;;;;5027622;28;20378;-74
2023/04/11 04:33:21;;;;;;;5.15;1.63;;;;;;;;;;5026069;28;20448;-75
2023/04/11 04:35:58;;;;;;;9.77;1.85;;;;;;;;;;5026438;28;20053;-78
2023/04/11 04:38:37;;;;;;;6.85;1.40;;;;;;;;;;5026329;28;20060;-74
2023/04/11 04:41:15;;;;;;;5.40;1.50;;;;;;;;;;5026341;28;20408;-75
2023/04/11 04:43:56;;;;;;;5.95;1.70;;;;;;;;;;5026022;28;20056;-76
2023/04/11 04:46:38;;;;;;;3.90;1.58;;;;;;;;;;5026563;28;20082;-76
2023/04/11 04:49:10;;;;;;;7.57;1.77;;;;;;;;;;5027046;28;20046;-76
2023/04/11 04:51:40;;;;;;;12.20;1.60;;;;;;;;;;5026488;28;20440;-78
2023/04/11 04:54:11;;;;;;;6.55;1.90;;;;;;;;;;5025976;28;20527;-74
2023/04/11 04:56:43;;;;;;;6.25;1.80;;;;;;;;;;5026053;28;20053;-76
2023/04/11 04:59:15;;;;;;;2.65;1.48;;;;;;;;;;5025983;28;20053;-73
2023/04/11 05:01:50;;;;;;;4.00;1.65;;;;;;;;;;5026239;28;20068;-73
2023/04/11 05:04:28;;;;;;;3.85;1.75;;;;;;;;;;5010443;28;20397;-75
2023/04/11 05:07:00;;;;;;;4.00;1.58;;;;;;;;;;5025643;28;20053;-75
2023/04/11 05:09:31;;;;;;;7.32;1.60;;;;;;;;;;5025718;28;20057;-77
2023/04/11 05:12:09;;;;;;;7.00;1.70;;;;;;;;;;5026020;28;20088;-74
2023/04/11 05:14:42;;;;;;;5.15;1.67;;;;;;;;;;5026654;28;20053;-73
2023/04/11 05:17:15;;;;;;;3.92;1.15;;;;;;;;;;5026011;28;20637;-78
2023/04/11 05:19:45;;;;;;;4.15;1.45;;;;;;;;;;5025768;28;20053;-77
2023/04/11 05:22:15;;;;;;;2.85;1.60;;;;;;;;;;5025663;28;20060;-75
2023/04/11 05:24:55;;;;;;;3.05;1.60;;;;;;;;;;5025786;28;20064;-76
2023/04/11 05:27:27;;;;;;;3.53;1.40;;;;;;;;;;5026516;28;20049;-73
2023/04/11 05:29:59;;;;;;;3.83;1.52;;;;;;;;;;5025386;28;20060;-78
2023/04/11 05:32:34;;;;;;;4.05;1.52;;;;;;;;;;5025687;28;21062;-72
2023/04/11 05:35:05;;;;;;;1.83;1.55;;;;;;;;;;5026852;28;20064;-77
2023/04/11 05:37:46;;;;;;;7.10;1.67;;;;;;;;;;5026213;28;20060;-73
2023/04/11 05:40:18;;;;;;;3.83;1.48;;;;;;;;;;5026824;28;20049;-76
2023/04/11 05:42:50;;;;;;;4.25;1.65;;;;;;;;;;5030692;28;20614;-72
2023/04/11 05:45:20;;;;;;;5.45;1.60;;;;;;;;;;5029409;28;20052;-74
2023/04/11 05:47:53;;;;;;;3.72;1.60;;;;;;;;;;5030356;28;20901;-76
2023/04/11 05:50:23;;;;;;;2.78;1.42;;;;;;;;;;5030800;28;20050;-75
2023/04/11 05:52:53;;;;;;;6.47;1.65;;;;;;;;;;5030546;28;20049;-76
2023/04/11 05:55:23;;;;;;;4.20;1.83;;;;;;;;;;5030569;28;20045;-75
2023/04/11 05:57:53;;;;;;;3.58;1.63;;;;;;;;;;5029953;28;20050;-77
2023/04/11 06:00:27;;;;;;;4.57;1.60;;;;;;;;;;5030617;28;20046;-75
2023/04/11 06:02:59;;;;;;;4.07;1.50;;;;;;;;;;5029099;28;20054;-73
2023/04/11 06:05:30;;;;;;;3.30;1.30;;;;;;;;;;5030615;28;20874;-72
2023/04/11 06:08:07;;;;;;;2.92;1.60;;;;;;;;;;5030249;28;20408;-76
2023/04/11 06:10:37;;;;;;;3.42;1.60;;;;;;;;;;5030588;28;20057;-77
2023/04/11 06:13:08;;;;;;;5.13;1.63;;;;;;;;;;5029652;28;20056;-75
2023/04/11 06:15:38;;;;;;;5.75;1.60;;;;;;;;;;5029650;28;20053;-74
2023/04/11 06:18:09;;;;;;;3.33;1.48;;;;;;;;;;5029032;28;20057;-74
2023/04/11 06:20:42;;;;;;;4.00;1.63;;;;;;;;;;5029908;28;20050;-72
2023/04/11 06:23:12;;;;;;;2.65;1.45;;;;;;;;;;5029880;28;20041;-72
2023/04/11 06:25:41;;;;;;;4.20;1.65;;;;;;;;;;5030266;28;20535;-72
2023/04/11 06:28:13;;;;;;;2.63;1.40;;;;;;;;;;5029494;28;21053;-76
2023/04/11 06:30:44;;;;;;;12.88;2.00;;;;;;;;;;5029725;28;20389;-72
2023/04/11 06:33:14;;;;;;;8.30;1.70;;;;;;;;;;5029503;28;20052;-75
2023/04/11 06:35:46;;;;;;;3.97;1.75;;;;;;;;;;5029496;28;20060;-77
2023/04/11 06:38:16;;;;;;;1.95;1.45;;;;;;;;;;5029942;28;20052;-72
2023/04/11 06:40:50;;;;;;;6.95;1.75;;;;;;;;;;5029809;28;20057;-75
2023/04/11 06:43:21;;;;;;;3.55;1.83;;;;;;;;;;5029807;28;20434;-74
2023/04/11 06:45:51;;;;;;;4.50;1.75;;;;;;;;;;5029239;28;20412;-76
2023/04/11 06:48:21;;;;;;;3.38;1.60;;;;;;;;;;5028477;28;20049;-75
2023/04/11 06:50:52;;;;;;;5.45;1.80;;;;;;;;;;5029681;28;20049;-77
2023/04/11 06:53:23;;;;;;;4.45;1.58;;;;;;;;;;5028693;28;20061;-75
2023/04/11 06:55:52;;;;;;;3.55;1.50;;;;;;;;;;5028986;28;20060;-76
2023/04/11 06:58:22;;;;;;;5.50;1.92;;;;;;;;;;5028907;28;20064;-76
2023/04/11 07:00:52;;;;;;;7.28;1.75;;;;;;;;;;5028891;28;20060;-72
2023/04/11 07:03:23;;;;;;;3.13;1.50;;;;;;;;;;5029018;28;20049;-74
2023/04/11 07:05:55;;;;;;;2.92;1.50;;;;;;;;;;5028949;28;20057;-73
2023/04/11 07:08:26;;;;;;;2.28;1.67;;;;;;;;;;5029259;28;20046;-73
2023/04/11 07:10:56;;;;;;;3.05;1.70;;;;;;;;;;5029393;28;20072;-76
2023/04/11 07:13:26;;;;;;;2.45;1.83;;;;;;;;;;5029954;28;20053;-77
2023/04/11 07:15:56;;;;;;;3.92;1.75;;;;;;;;;;5028491;28;20052;-75
2023/04/11 07:18:27;;;;;;;5.32;1.88;;;;;;;;;;5029443;28;20490;-75
2023/04/11 07:20:57;;;;;;;7.07;2.10;;;;;;;;;;5028700;28;20060;-73
2023/04/11 07:23:29;;;;;;;5.30;1.80;;;;;;;;;;5028659;28;20050;-74
2023/04/11 07:25:59;;;;;;;3.25;1.80;;;;;;;;;;5027143;28;20041;-74
2023/04/11 07:28:30;;;;;;;3.50;2.13;;;;;;;;;;5027385;28;20057;-76
2023/04/11 07:31:01;;;;;;;2.65;1.48;;;;;;;;;;5029022;28;20422;-72
2023/04/11 07:33:31;;;;;;;3.65;1.92;;;;;;;;;;5027312;28;20049;-75
2023/04/11 07:36:02;;;;;;;4.07;2.10;;;;;;;;;;5028985;28;20049;-74
2023/04/11 07:38:36;;;;;;;3.80;1.92;;;;;;;;;;5028366;28;20504;-75
2023/04/11 07:41:08;;;;;;;2.63;1.90;;;;;;;;;;5026987;28;20064;-72
2023/04/11 07:43:39;;;;;;;5.38;1.85;;;;;;;;;;5028330;28;20052;-76
2023/04/11 07:46:10;;;;;;;6.60;1.75;;;;;;;;;;5027375;28;20056;-75
2023/04/11 07:48:42;;;;;;;4.97;1.90;;;;;;;;;;5028305;28;20049;-71
2023/04/11 07:51:13;;;;;;;2.45;1.63;;;;;;;;;;5028443;28;21151;-74
2023/04/11 07:53:43;;;;;;;2.60;1.80;;;;;;;;;;5027136;28;20037;-74
2023/04/11 07:56:14;;;;;;;3.10;1.90;;;;;;;;;;5027766;28;20061;-72
2023/04/11 07:58:45;;;;;;;8.18;1.80;;;;;;;;;;5027264;28;20061;-74
2023/04/11 08:01:24;;;;;;;2.92;1.73;;;;;;;;;;5028541;28;20515;-76
2023/04/11 08:03:55;;;;;;;6.82;1.83;;;;;;;;;;5027445;28;20056;-74
2023/04/11 08:06:27;;;;;;;3.00;1.92;;;;;;;;;;5029145;28;20052;-75
2023/04/11 08:08:59;;;;;;;2.90;1.92;;;;;;;;;;5029105;28;20041;-75
2023/04/11 08:11:30;;;;;;;2.60;1.90;;;;;;;;;;5028940;28;20046;-76
2023/04/11 08:14:01;;;;;;;5.05;1.90;;;;;;;;;;5029274;28;20053;-73
2023/04/11 08:16:32;;;;;;;5.75;1.98;;;;;;;;;;5028125;28;20050;-74
2023/04/11 08:19:03;;;;;;;3.88;1.75;;;;;;;;;;5027643;28;20049;-73
2023/04/11 08:21:34;;;;;;;3.22;1.77;;;;;;;;;;5029035;28;20049;-73
2023/04/11 08:24:04;;;;;;;3.83;1.95;;;;;;;;;;5027771;28;20046;-74
2023/04/11 08:26:35;;;;;;;3.90;1.90;;;;;;;;;;5028749;28;20057;-73
2023/04/11 08:29:09;;;;;;;4.20;2.00;;;;;;;;;;5028600;28;20431;-73
2023/04/11 08:31:43;;;;;;;2.90;1.63;;;;;;;;;;5028357;28;20049;-75
2023/04/11 08:34:13;;;;;;;3.75;1.88;;;;;;;;;;5028060;28;20048;-73
2023/04/11 08:36:43;;;;;;;6.95;1.77;;;;;;;;;;5027515;28;20046;-72
2023/04/11 08:39:14;;;;;;;5.88;1.67;;;;;;;;;;5028235;28;20424;-74
2023/04/11 08:41:44;;;;;;;6.88;1.90;;;;;;;;;;5028283;28;20424;-75
2023/04/11 08:44:15;;;;;;;4.25;1.77;;;;;;;;;;5029090;28;20045;-73
2023/04/11 08:46:45;;;;;;;4.90;1.80;;;;;;;;;;5011028;28;20497;-72
2023/04/11 08:49:16;;;;;;;2.78;2.13;;;;;;;;;;5029095;28;20058;-75
2023/04/11 08:51:47;;;;;;;5.25;2.08;;;;;;;;;;5028651;28;20135;-74
2023/04/11 08:54:18;;;;;;;1.88;1.52;;;;;;;;;;5025887;28;20061;-72
2023/04/11 08:56:48;;;;;;;3.33;2.05;;;;;;;;;;5027647;28;20121;-73
2023/04/11 08:59:18;;;;;;;3.35;2.20;;;;;;;;;;5027001;28;20064;-77
2023/04/11 09:01:49;;;;;;;4.00;1.98;;;;;;;;;;5028434;28;20052;-74
2023/04/11 09:04:21;;;;;;;8.43;2.03;;;;;;;;;;5027558;28;20492;-75
2023/04/11 09:06:58;;;;;;;2.67;2.30;;;;;;;;;;5030298;28;20042;-74
2023/04/11 09:09:30;;;;;;;8.95;2.25;;;;;;;;;;5029742;28;20744;-75
2023/04/11 09:12:01;;;;;;;7.03;2.00;;;;;;;;;;5030449;28;20046;-75
2023/04/11 09:14:32;;;;;;;11.13;2.20;;;;;;;;;;5028817;28;20770;-75
2023/04/11 09:17:12;;;;;;;6.93;2.05;;;;;;;;;;5028962;28;20334;-76
2023/04/11 09:19:43;;;;;;;4.97;1.83;;;;;;;;;;5029934;28;20045;-75
2023/04/11 09:22:16;;;;;;;3.45;2.10;;;;;;;;;;5030359;28;20042;-76
2023/04/11 09:25:02;;;;;;;5.90;1.90;;;;;;;;;;5028204;28;20054;-75
2023/04/11 09:27:33;;;;;;;9.15;2.00;;;;;;;;;;5028301;28;20053;-73
2023/04/11 09:30:05;;;;;;;10.90;2.47;;;;;;;;;;5027267;28;20056;-76
2023/04/11 09:32:35;;;;;;;8.93;2.30;;;;;;;;;;5028001;28;20049;-74
2023/04/11 09:35:23;;;;;;;12.10;2.35;;;;;;;;;;5028174;28;20045;-75
2023/04/11 09:37:57;;;;;;;5.13;1.85;;;;;;;;;;5028422;28;20049;-76
2023/04/11 09:40:32;;;;;;;6.50;2.35;;;;;;;;;;5026447;28;20551;-74
2023/04/11 09:43:03;;;;;;;11.73;2.30;;;;;;;;;;5027193;28;20041;-76
2023/04/11 09:45:36;;;;;;;7.38;2.47;;;;;;;;;;5026680;28;20512;-78
2023/04/11 09:48:21;;;;;;;4.30;1.80;;;;;;;;;;5026776;28;20045;-74
2023/04/11 09:51:08;;;;;;;3.88;2.33;;;;;;;;;;5026309;28;20045;-74
2023/04/11 09:53:42;;;;;;;4.57;2.10;;;;;;;;;;5025492;28;20053;-76
2023/04/11 09:56:13;;;;;;;9.32;2.30;;;;;;;;;;5026694;28;20058;-75
2023/04/11 09:58:47;;;;;;;8.70;2.35;;;;;;;;;;5026335;28;20057;-73
2023/04/11 10:01:18;;;;;;;6.43;2.40;;;;;;;;;;5026934;28;20496;-75
2023/04/11 10:03:49;;;;;;;10.27;2.33;;;;;;;;;;5027524;28;20057;-75
2023/04/11 10:06:46;;;;;;;13.10;2.80;;;;;;;;;;5026159;28;20053;-75
2023/04/11 10:09:18;;;;;;;18.38;2.72;;;;;;;;;;5026879;28;20057;-75
2023/04/11 10:11:48;;;;;;;14.43;2.78;;;;;;;;;;5026510;28;20045;-76
2023/04/11 10:14:40;;;;;;;17.27;2.65;;;;;;;;;;5041658;28;20052;-75
2023/04/11 10:17:13;;;;;;;10.98;3.47;;;;;;;;;;5045930;28;20052;-75
2023/04/11 10:19:50;;;;;;;14.95;6.60;;;;;;;;;;5044759;28;20064;-76
2023/04/11 10:22:42;;;;;;;14.50;3.35;;;;;;;;;;5045352;28;20057;-75
2023/04/11 10:25:19;;;;;;;13.75;3.42;;;;;;;;;;5046547;28;20499;-73
2023/04/11 10:28:03;;;;;;;8.90;3.10;;;;;;;;;;5049675;28;20047;-76
2023/04/11 10:30:39;;;;;;;9.15;3.58;;;;;;;;;;5049811;28;20045;-74
2023/04/11 10:33:16;;;;;;;9.88;3.30;;;;;;;;;;5049573;28;20057;-76
2023/04/11 10:36:09;;;;;;;12.80;3.33;;;;;;;;;;5049728;28;20056;-76
2023/04/11 10:38:40;;;;;;;10.45;3.47;;;;;;;;;;5049725;28;20045;-73
2023/04/11 10:41:32;;;;;;;7.28;3.58;;;;;;;;;;5048140;28;20053;-76
2023/04/11 10:44:13;;;;;;;20.50;4.10;;;;;;;;;;5049743;28;20495;-74
2023/04/11 10:46:52;;;;;;;10.68;3.45;;;;;;;;;;5049710;28;20048;-74
2023/04/11 10:49:37;;;;;;;15.52;4.10;;;;;;;;;;5049773;28;20049;-74
2023/04/11 10:52:22;;;;;;;12.18;3.65;;;;;;;;;;5049676;28;20049;-75
2023/04/11 10:54:53;;;;;;;7.75;2.80;;;;;;;;;;5048765;28;20845;-74
2023/04/11 10:57:24;;;;;;;7.35;2.70;;;;;;;;;;5048678;28;20500;-75
2023/04/11 10:59:57;;;;;;;12.20;3.55;;;;;;;;;;5048561;28;20130;-74
2023/04/11 11:02:36;;;;;;;5.70;2.85;;;;;;;;;;5048747;28;20049;-76
2023/04/11 11:05:18;;;;;;;6.13;3.00;;;;;;;;;;5049032;28;20044;-72
2023/04/11 11:07:50;;;;;;;13.00;2.67;;;;;;;;;;5049182;28;20048;-73
2023/04/11 11:10:46;;;;;;;5.65;2.42;;;;;;;;;;5048913;28;20052;-73
2023/04/11 11:13:17;;;;;;;6.97;2.13;;;;;;;;;;5050066;28;20044;-78
2023/04/11 11:15:48;;;;;;;11.50;2.88;;;;;;;;;;5049442;28;20045;-74
2023/04/11 11:18:18;;;;;;;6.47;2.00;;;;;;;;;;5047644;28;20423;-75
2023/04/11 11:20:55;;;;;;;8.82;2.15;;;;;;;;;;5048868;28;20056;-75
2023/04/11 11:23:27;;;;;;;14.52;2.33;;;;;;;;;;5049170;28;20063;-74
2023/04/11 11:25:59;;;;;;;5.97;2.13;;;;;;;;;;5048366;28;20056;-75
2023/04/11 11:28:29;;;;;;;4.07;1.92;;;;;;;;;;5047728;28;20499;-73
2023/04/11 11:31:00;;;;;;;10.32;2.60;;;;;;;;;;5048979;28;20045;-74
2023/04/11 11:33:31;;;;;;;8.18;2.10;;;;;;;;;;5048336;28;20049;-77
2023/04/11 11:36:03;;;;;;;12.68;2.42;;;;;;;;;;5046715;28;20052;-75
2023/04/11 11:38:34;;;;;;;4.95;1.95;;;;;;;;;;5045935;28;20049;-74
2023/04/11 11:41:05;;;;;;;6.93;2.03;;;;;;;;;;5047132;28;20083;-74
2023/04/11 11:43:36;;;;;;;10.18;2.20;;;;;;;;;;5046354;28;20047;-76
2023/04/11 11:46:13;;;;;;;7.95;2.40;;;;;;;;;;5045985;28;20116;-74
2023/04/11 11:48:56;;;;;;;6.55;2.33;;;;;;;;;;5046534;28;20060;-74
2023/04/11 11:51:46;;;;;;;6.05;2.53;;;;;;;;;;5048011;28;20099;-76
2023/04/11 11:54:17;;;;;;;4.20;1.80;;;;;;;;;;5048195;28;20045;-74
2023/04/11 11:56:54;;;;;;;6.45;1.90;;;;;;;;;;5046606;28;20049;-79
2023/04/11 11:59:27;;;;;;;5.45;1.95;;;;;;;;;;5046885;28;20052;-77
2023/04/11 12:01:58;;;;;;;5.57;1.55;;;;;;;;;;5048271;28;20040;-75
2023/04/11 12:04:30;;;;;;;6.97;1.80;;;;;;;;;;5048102;28;20045;-76
2023/04/11 12:07:08;;;;;;;7.00;1.90;;;;;;;;;;5047996;28;20056;-75
2023/04/11 12:09:39;;;;;;;7.32;2.40;;;;;;;;;;5048108;28;20504;-74
2023/04/11 12:12:10;;;;;;;7.45;1.92;;;;;;;;;;5047922;28;20072;-77
2023/04/11 12:14:50;;;;;;;7.50;1.80;;;;;;;;;;5047858;28;20404;-75
2023/04/11 12:17:21;;;;;;;6.72;2.72;;;;;;;;;;5047736;28;20049;-75
2023/04/11 12:19:54;;;;;;;5.55;1.58;;;;;;;;;;5047835;28;20590;-74
2023/04/11 12:22:25;;;;;;;4.57;1.42;;;;;;;;;;5046717;28;20071;-79
2023/04/11 12:25:11;;;;;;;7.65;1.50;;;;;;;;;;5048387;28;20048;-74
2023/04/11 12:27:43;;;;;;;6.18;1.83;;;;;;;;;;5047340;28;20731;-75
2023/04/11 12:30:15;;;;;;;2.33;1.25;;;;;;;;;;5047331;28;20058;-75
2023/04/11 12:32:46;;;;;;;5.63;1.42;;;;;;;;;;5047111;28;20076;-75
2023/04/11 12:35:18;;;;;;;4.68;1.83;;;;;;;;;;5047236;28;20045;-74
2023/04/11 12:37:48;;;;;;;7.47;1.90;;;;;;;;;;5046884;28;20048;-74
2023/04/11 12:40:18;;;;;;;7.05;1.55;;;;;;;;;;5046892;28;20053;-74
2023/04/11 12:42:48;;;;;;;4.43;1.48;;;;;;;;;;5047176;28;20056;-75
2023/04/11 12:45:27;;;;;;;8.93;2.30;;;;;;;;;;5047147;28;20045;-76
2023/04/11 12:47:57;;;;;;;3.17;1.50;;;;;;;;;;5047675;28;20052;-76
2023/04/11 12:50:28;;;;;;;4.70;1.60;;;;;;;;;;5047135;28;20056;-77
2023/04/11 12:52:58;;;;;;;3.38;1.55;;;;;;;;;;5047619;28;20411;-75
2023/04/11 12:55:28;;;;;;;5.47;1.70;;;;;;;;;;5047474;28;20415;-76
2023/04/11 12:58:01;;;;;;;6.60;1.65;;;;;;;;;;5047035;28;20057;-76
2023/04/11 13:00:31;;;;;;;4.78;1.50;;;;;;;;;;5047061;28;20067;-76
2023/04/11 13:03:03;;;;;;;4.60;1.40;;;;;;;;;;5047404;28;20048;-79
2023/04/11 13:05:35;;;;;;;6.50;1.58;;;;;;;;;;5046992;28;20041;-76
2023/04/11 13:08:06;;;;;;;3.13;1.20;;;;;;;;;;5046763;28;20391;-75
2023/04/11 13:10:38;;;;;;;9.85;1.42;;;;;;;;;;5045894;28;20049;-76
2023/04/11 13:13:08;;;;;;;2.35;1.50;;;;;;;;;;5047574;28;20060;-77
2023/04/11 13:15:46;;;;;;;1.80;1.10;;;;;;;;;;5047199;28;20048;-74
2023/04/11 13:18:18;;;;;;;6.13;1.42;;;;;;;;;;5046202;28;20048;-75
2023/04/11 13:20:49;;;;;;;1.38;1.27;;;;;;;;;;5047063;28;20049;-76
2023/04/11 13:23:19;;;;;;;5.43;1.35;;;;;;;;;;5046735;28;20041;-75
2023/04/11 13:25:50;;;;;;;3.22;1.40;;;;;;;;;;5046362;28;20049;-77
2023/04/11 13:28:22;;;;;;;4.65;1.30;;;;;;;;;;5045314;28;20054;-77
2023/04/11 13:30:55;;;;;;;4.20;1.40;;;;;;;;;;5045577;28;20048;-76
2023/04/11 13:33:26;;;;;;;3.63;1.23;;;;;;;;;;5046642;28;20060;-75
2023/04/11 13:35:56;;;;;;;3.50;1.17;;;;;;;;;;5046666;28;20508;-75
2023/04/11 13:38:29;;;;;;;2.28;1.23;;;;;;;;;;5046744;28;20049;-76
2023/04/11 13:41:01;;;;;;;3.92;1.20;;;;;;;;;;5046245;28;20037;-76
2023/04/11 13:43:32;;;;;;;1.65;1.20;;;;;;;;;;5046462;28;20072;-77
2023/04/11 13:46:02;;;;;;;4.03;1.60;;;;;;;;;;5046515;28;21216;-79
2023/04/11 13:48:34;;;;;;;2.33;1.15;;;;;;;;;;5046675;28;20060;-75
2023/04/11 13:51:05;;;;;;;4.65;1.67;;;;;;;;;;5044942;28;20056;-75
2023/04/11 13:53:35;;;;;;;4.88;1.30;;;;;;;;;;5045822;28;20065;-77
2023/04/11 13:56:07;;;;;;;3.08;1.50;;;;;;;;;;5046940;28;20049;-77
2023/04/11 13:58:37;;;;;;;2.58;1.08;;;;;;;;;;5046271;28;20503;-72
2023/04/11 14:01:09;;;;;;;2.22;1.42;;;;;;;;;;5046188;28;20071;-76
2023/04/11 14:03:41;;;;;;;4.03;1.23;;;;;;;;;;5050277;28;20041;-72
2023/04/11 14:06:12;;;;;;;4.25;1.35;;;;;;;;;;5050162;28;20049;-74
2023/04/11 14:08:42;;;;;;;7.50;2.17;;;;;;;;;;5050443;28;20048;-76
2023/04/11 14:11:12;;;;;;;12.35;3.03;;;;;;;;;;5048881;28;20041;-76
2023/04/11 14:13:43;;;;;;;6.30;1.60;;;;;;;;;;5050152;28;20053;-77
2023/04/11 14:16:13;;;;;;;4.95;1.40;;;;;;;;;;5049951;28;20041;-77
2023/04/11 14:18:44;;;;;;;2.85;1.50;;;;;;;;;;5049991;28;20049;-76
2023/04/11 14:21:15;;;;;;;2.00;1.50;;;;;;;;;;5050155;28;20049;-75
2023/04/11 14:23:48;;;;;;;2.67;1.60;;;;;;;;;;5050111;28;20059;-75
2023/04/11 14:26:18;;;;;;;2.38;1.38;;;;;;;;;;5049864;28;20503;-76
2023/04/11 14:28:49;;;;;;;2.85;1.50;;;;;;;;;;5049611;28;20049;-76
2023/04/11 14:31:20;;;;;;;6.72;1.58;;;;;;;;;;5050265;28;20045;-76
2023/04/11 14:33:52;;;;;;;2.80;1.92;;;;;;;;;;5048713;28;20044;-75
2023/04/11 14:36:24;;;;;;;2.10;1.50;;;;;;;;;;5049612;28;20491;-81
2023/04/11 14:38:54;;;;;;;6.65;1.60;;;;;;;;;;5048114;28;20065;-74
2023/04/11 14:41:25;;;;;;;3.67;1.40;;;;;;;;;;5048637;28;20527;-76
2023/04/11 14:43:56;;;;;;;5.03;1.38;;;;;;;;;;5049174;28;20745;-75
2023/04/11 14:46:28;;;;;;;2.10;1.30;;;;;;;;;;5049155;28;20048;-73
2023/04/11 14:48:58;;;;;;;6.07;1.70;;;;;;;;;;5048315;28;20483;-74
2023/04/11 14:51:31;;;;;;;2.80;1.40;;;;;;;;;;5049358;28;20041;-73
2023/04/11 14:54:02;;;;;;;5.78;1.75;;;;;;;;;;5049209;28;20049;-74
2023/04/11 14:56:32;;;;;;;13.95;2.00;;;;;;;;;;5049582;28;20052;-75
2023/04/11 14:59:02;;;;;;;2.90;1.55;;;;;;;;;;5049807;28;20523;-74
2023/04/11 15:01:32;;;;;;;6.00;1.70;;;;;;;;;;5049285;28;20049;-74
2023/04/11 15:04:03;;;;;;;7.00;1.70;;;;;;;;;;5049273;28;20052;-74
2023/04/11 15:06:34;;;;;;;5.00;1.67;;;;;;;;;;5049078;28;20051;-74
2023/04/11 15:09:07;;;;;;;2.95;1.52;;;;;;;;;;5048715;28;20053;-73
2023/04/11 15:11:37;;;;;;;6.53;1.90;;;;;;;;;;5048755;28;20495;-74
2023/04/11 15:14:08;;;;;;;3.40;1.70;;;;;;;;;;5047885;28;20052;-74
2023/04/11 15:16:39;;;;;;;3.97;1.88;;;;;;;;;;5048789;28;20056;-76